sensor_id;sensor_type;location;lat;lon;timestamp;pressure;altitude;pressure_sealevel;temperature;humidity
56831;BME280;42713;42.676;23.352;2024-01-11T00:00:34;95690.63;;;-3.25;65.02
56831;BME280;42713;42.676;23.352;2024-01-11T00:02:59;95688.59;;;-3.31;64.88
56831;BME280;42713;42.676;23.352;2024-01-11T00:05:25;95694.81;;;-3.34;64.51
56831;BME280;42713;42.676;23.352;2024-01-11T00:07:50;95674.97;;;-3.41;65.19
56831;BME280;42713;42.676;23.352;2024-01-11T00:10:17;95663.34;;;-3.55;65.56
56831;BME280;42713;42.676;23.352;2024-01-11T00:12:42;95665.06;;;-3.56;65.44
56831;BME280;42713;42.676;23.352;2024-01-11T00:15:08;95660.22;;;-3.59;64.86
56831;BME280;42713;42.676;23.352;2024-01-11T00:17:34;95681.72;;;-3.40;65.65
56831;BME280;42713;42.676;23.352;2024-01-11T00:20:00;95663.19;;;-3.54;65.70
56831;BME280;42713;42.676;23.352;2024-01-11T00:22:26;95653.88;;;-3.55;65.81
56831;BME280;42713;42.676;23.352;2024-01-11T00:24:51;95679.16;;;-3.40;65.42
56831;BME280;42713;42.676;23.352;2024-01-11T00:27:17;95661.19;;;-3.50;65.94
56831;BME280;42713;42.676;23.352;2024-01-11T00:29:43;95670.78;;;-3.42;65.41
56831;BME280;42713;42.676;23.352;2024-01-11T00:32:08;95665.38;;;-3.49;66.21
56831;BME280;42713;42.676;23.352;2024-01-11T00:34:34;95653.78;;;-3.53;66.81
56831;BME280;42713;42.676;23.352;2024-01-11T00:37:01;95657.13;;;-3.53;66.68
56831;BME280;42713;42.676;23.352;2024-01-11T00:39:26;95654.56;;;-3.53;66.40
56831;BME280;42713;42.676;23.352;2024-01-11T00:41:52;95644.44;;;-3.64;66.17
56831;BME280;42713;42.676;23.352;2024-01-11T00:44:17;95667.41;;;-3.43;66.39
56831;BME280;42713;42.676;23.352;2024-01-11T00:46:43;95646.31;;;-3.66;66.73
56831;BME280;42713;42.676;23.352;2024-01-11T00:49:09;95654.97;;;-3.57;66.80
56831;BME280;42713;42.676;23.352;2024-01-11T00:51:34;95656.59;;;-3.56;66.48
56831;BME280;42713;42.676;23.352;2024-01-11T00:54:00;95674.41;;;-3.45;65.35
56831;BME280;42713;42.676;23.352;2024-01-11T00:56:25;95641.19;;;-3.66;63.94
56831;BME280;42713;42.676;23.352;2024-01-11T00:58:52;95637.00;;;-3.67;63.74
56831;BME280;42713;42.676;23.352;2024-01-11T01:01:17;95625.56;;;-3.73;63.31
56831;BME280;42713;42.676;23.352;2024-01-11T01:03:43;95624.06;;;-3.76;63.64
56831;BME280;42713;42.676;23.352;2024-01-11T01:06:09;95644.03;;;-3.60;63.69
56831;BME280;42713;42.676;23.352;2024-01-11T01:08:34;95624.59;;;-3.72;63.72
56831;BME280;42713;42.676;23.352;2024-01-11T01:11:00;95633.25;;;-3.73;64.56
56831;BME280;42713;42.676;23.352;2024-01-11T01:13:25;95645.38;;;-3.65;64.97
56831;BME280;42713;42.676;23.352;2024-01-11T01:15:51;95622.31;;;-3.75;64.73
56831;BME280;42713;42.676;23.352;2024-01-11T01:18:16;95638.22;;;-3.71;64.96
56831;BME280;42713;42.676;23.352;2024-01-11T01:20:42;95647.25;;;-3.67;66.33
56831;BME280;42713;42.676;23.352;2024-01-11T01:23:07;95645.50;;;-3.67;65.84
56831;BME280;42713;42.676;23.352;2024-01-11T01:25:33;95630.00;;;-3.75;65.20
56831;BME280;42713;42.676;23.352;2024-01-11T01:27:58;95638.63;;;-3.76;64.53
56831;BME280;42713;42.676;23.352;2024-01-11T01:30:26;95620.25;;;-3.91;63.87
56831;BME280;42713;42.676;23.352;2024-01-11T01:32:52;95631.66;;;-3.95;64.64
56831;BME280;42713;42.676;23.352;2024-01-11T01:35:18;95621.97;;;-4.01;65.19
56831;BME280;42713;42.676;23.352;2024-01-11T01:37:43;95627.22;;;-4.03;65.25
56831;BME280;42713;42.676;23.352;2024-01-11T01:40:09;95648.94;;;-3.87;64.57
56831;BME280;42713;42.676;23.352;2024-01-11T01:42:35;95617.91;;;-4.04;64.63
56831;BME280;42713;42.676;23.352;2024-01-11T01:45:00;95625.72;;;-4.06;64.50
56831;BME280;42713;42.676;23.352;2024-01-11T01:47:26;95615.63;;;-4.07;64.91
56831;BME280;42713;42.676;23.352;2024-01-11T01:49:53;95606.41;;;-4.19;65.06
56831;BME280;42713;42.676;23.352;2024-01-11T01:52:19;95610.47;;;-4.17;65.15
56831;BME280;42713;42.676;23.352;2024-01-11T01:54:47;95600.72;;;-4.23;65.38
56831;BME280;42713;42.676;23.352;2024-01-11T01:57:14;95604.66;;;-4.19;65.60
56831;BME280;42713;42.676;23.352;2024-01-11T01:59:41;95617.75;;;-4.12;65.91
56831;BME280;42713;42.676;23.352;2024-01-11T02:02:09;95595.91;;;-4.26;66.05
56831;BME280;42713;42.676;23.352;2024-01-11T02:04:36;95605.34;;;-4.17;65.42
56831;BME280;42713;42.676;23.352;2024-01-11T02:07:01;95600.88;;;-4.25;66.10
56831;BME280;42713;42.676;23.352;2024-01-11T02:09:28;95605.75;;;-4.22;66.36
56831;BME280;42713;42.676;23.352;2024-01-11T02:11:54;95584.28;;;-4.30;65.76
56831;BME280;42713;42.676;23.352;2024-01-11T02:14:20;95590.47;;;-4.33;65.49
56831;BME280;42713;42.676;23.352;2024-01-11T02:16:45;95614.47;;;-4.24;65.89
56831;BME280;42713;42.676;23.352;2024-01-11T02:19:13;95582.88;;;-4.44;65.83
56831;BME280;42713;42.676;23.352;2024-01-11T02:21:42;95575.69;;;-4.50;65.79
56831;BME280;42713;42.676;23.352;2024-01-11T02:24:09;95583.66;;;-4.54;65.85
56831;BME280;42713;42.676;23.352;2024-01-11T02:26:34;95586.03;;;-4.62;66.48
56831;BME280;42713;42.676;23.352;2024-01-11T02:29:00;95593.16;;;-4.65;66.72
56831;BME280;42713;42.676;23.352;2024-01-11T02:31:26;95567.09;;;-4.80;66.51
56831;BME280;42713;42.676;23.352;2024-01-11T02:33:55;95589.59;;;-4.74;65.98
56831;BME280;42713;42.676;23.352;2024-01-11T02:36:21;95607.25;;;-4.71;66.93
56831;BME280;42713;42.676;23.352;2024-01-11T02:38:48;95582.13;;;-4.87;67.07
56831;BME280;42713;42.676;23.352;2024-01-11T02:41:18;95576.94;;;-4.97;66.77
56831;BME280;42713;42.676;23.352;2024-01-11T02:43:48;95596.38;;;-4.85;66.77
56831;BME280;42713;42.676;23.352;2024-01-11T02:46:17;95599.63;;;-4.82;66.60
56831;BME280;42713;42.676;23.352;2024-01-11T02:48:42;95583.66;;;-4.96;66.42
56831;BME280;42713;42.676;23.352;2024-01-11T02:51:08;95574.75;;;-5.02;67.27
56831;BME280;42713;42.676;23.352;2024-01-11T02:53:33;95569.91;;;-5.05;66.48
56831;BME280;42713;42.676;23.352;2024-01-11T02:56:00;95579.44;;;-5.07;67.41
56831;BME280;42713;42.676;23.352;2024-01-11T02:58:26;95576.06;;;-5.07;67.41
56831;BME280;42713;42.676;23.352;2024-01-11T03:00:51;95570.53;;;-5.12;66.89
56831;BME280;42713;42.676;23.352;2024-01-11T03:03:17;95568.75;;;-5.12;66.66
56831;BME280;42713;42.676;23.352;2024-01-11T03:05:43;95571.69;;;-5.17;67.24
56831;BME280;42713;42.676;23.352;2024-01-11T03:08:08;95563.78;;;-5.13;67.43
56831;BME280;42713;42.676;23.352;2024-01-11T03:10:37;95566.34;;;-5.13;67.14
56831;BME280;42713;42.676;23.352;2024-01-11T03:13:05;95559.97;;;-5.19;67.28
56831;BME280;42713;42.676;23.352;2024-01-11T03:15:31;95569.28;;;-5.18;67.87
56831;BME280;42713;42.676;23.352;2024-01-11T03:17:57;95577.13;;;-5.10;66.45
56831;BME280;42713;42.676;23.352;2024-01-11T03:20:22;95552.50;;;-5.32;66.04
56831;BME280;42713;42.676;23.352;2024-01-11T03:22:50;95580.19;;;-5.16;66.86
56831;BME280;42713;42.676;23.352;2024-01-11T03:25:17;95557.59;;;-5.32;67.15
56831;BME280;42713;42.676;23.352;2024-01-11T03:27:42;95587.56;;;-5.13;66.87
56831;BME280;42713;42.676;23.352;2024-01-11T03:30:08;95561.34;;;-5.36;67.45
56831;BME280;42713;42.676;23.352;2024-01-11T03:32:34;95552.97;;;-5.38;67.31
56831;BME280;42713;42.676;23.352;2024-01-11T03:34:59;95574.56;;;-5.31;67.69
56831;BME280;42713;42.676;23.352;2024-01-11T03:37:25;95554.88;;;-5.40;67.26
56831;BME280;42713;42.676;23.352;2024-01-11T03:39:51;95565.28;;;-5.32;67.55
56831;BME280;42713;42.676;23.352;2024-01-11T03:42:16;95568.53;;;-5.30;67.36
56831;BME280;42713;42.676;23.352;2024-01-11T03:44:42;95578.38;;;-5.25;66.83
56831;BME280;42713;42.676;23.352;2024-01-11T03:47:08;95562.81;;;-5.34;67.53
56831;BME280;42713;42.676;23.352;2024-01-11T03:49:33;95578.72;;;-5.30;67.65
56831;BME280;42713;42.676;23.352;2024-01-11T03:51:59;95574.97;;;-5.26;66.92
56831;BME280;42713;42.676;23.352;2024-01-11T03:54:25;95565.13;;;-5.31;66.84
56831;BME280;42713;42.676;23.352;2024-01-11T03:56:58;95575.34;;;-5.31;67.84
56831;BME280;42713;42.676;23.352;2024-01-11T04:02:26;95548.03;;;-5.51;67.59
56831;BME280;42713;42.676;23.352;2024-01-11T04:04:51;95564.72;;;-5.36;67.97
56831;BME280;42713;42.676;23.352;2024-01-11T04:07:17;95572.25;;;-5.34;67.77
56831;BME280;42713;42.676;23.352;2024-01-11T04:09:53;95542.56;;;-5.47;67.66
56831;BME280;42713;42.676;23.352;2024-01-11T04:12:19;95545.03;;;-5.45;68.47
56831;BME280;42713;42.676;23.352;2024-01-11T04:14:44;95552.59;;;-5.34;68.46
56831;BME280;42713;42.676;23.352;2024-01-11T04:17:10;95539.19;;;-5.36;68.37
56831;BME280;42713;42.676;23.352;2024-01-11T04:22:28;95544.53;;;-5.18;68.13
56831;BME280;42713;42.676;23.352;2024-01-11T04:24:54;95556.69;;;-5.10;67.89
56831;BME280;42713;42.676;23.352;2024-01-11T04:27:20;95552.63;;;-5.12;68.14
56831;BME280;42713;42.676;23.352;2024-01-11T04:29:45;95528.66;;;-5.21;67.38
56831;BME280;42713;42.676;23.352;2024-01-11T04:32:11;95533.28;;;-5.15;67.08
56831;BME280;42713;42.676;23.352;2024-01-11T04:34:37;95532.31;;;-5.14;66.73
56831;BME280;42713;42.676;23.352;2024-01-11T04:37:02;95535.44;;;-5.10;67.03
56831;BME280;42713;42.676;23.352;2024-01-11T04:39:28;95535.56;;;-5.12;67.14
56831;BME280;42713;42.676;23.352;2024-01-11T04:41:54;95548.78;;;-5.07;67.27
56831;BME280;42713;42.676;23.352;2024-01-11T04:44:19;95535.13;;;-5.17;67.00
56831;BME280;42713;42.676;23.352;2024-01-11T04:46:45;95544.41;;;-5.16;67.58
56831;BME280;42713;42.676;23.352;2024-01-11T04:49:10;95542.91;;;-5.19;67.31
56831;BME280;42713;42.676;23.352;2024-01-11T04:51:36;95555.44;;;-5.16;67.53
56831;BME280;42713;42.676;23.352;2024-01-11T04:54:02;95531.16;;;-5.31;66.57
56831;BME280;42713;42.676;23.352;2024-01-11T04:56:27;95547.81;;;-5.27;67.86
56831;BME280;42713;42.676;23.352;2024-01-11T04:58:55;95537.00;;;-5.40;68.16
56831;BME280;42713;42.676;23.352;2024-01-11T05:01:20;95542.56;;;-5.47;69.05
56831;BME280;42713;42.676;23.352;2024-01-11T05:03:47;95548.19;;;-5.53;69.29
56831;BME280;42713;42.676;23.352;2024-01-11T05:06:17;95545.28;;;-5.59;69.29
56831;BME280;42713;42.676;23.352;2024-01-11T05:08:44;95546.91;;;-5.58;69.15
56831;BME280;42713;42.676;23.352;2024-01-11T05:11:19;95568.22;;;-5.48;68.48
56831;BME280;42713;42.676;23.352;2024-01-11T05:13:46;95535.69;;;-5.67;68.88
56831;BME280;42713;42.676;23.352;2024-01-11T05:16:26;95552.13;;;-5.49;68.64
56831;BME280;42713;42.676;23.352;2024-01-11T05:18:52;95549.09;;;-5.54;68.99
56831;BME280;42713;42.676;23.352;2024-01-11T05:21:18;95549.56;;;-5.49;68.54
56831;BME280;42713;42.676;23.352;2024-01-11T05:23:44;95531.03;;;-5.62;68.50
56831;BME280;42713;42.676;23.352;2024-01-11T05:26:11;95547.34;;;-5.53;68.68
56831;BME280;42713;42.676;23.352;2024-01-11T05:28:36;95525.97;;;-5.73;69.12
56831;BME280;42713;42.676;23.352;2024-01-11T05:31:14;95535.31;;;-5.63;68.85
56831;BME280;42713;42.676;23.352;2024-01-11T05:33:40;95516.94;;;-5.78;68.90
56831;BME280;42713;42.676;23.352;2024-01-11T05:36:07;95518.69;;;-5.78;70.13
56831;BME280;42713;42.676;23.352;2024-01-11T05:38:33;95524.22;;;-5.73;70.64
56831;BME280;42713;42.676;23.352;2024-01-11T05:53:04;95500.16;;;-5.91;70.42
56831;BME280;42713;42.676;23.352;2024-01-11T06:00:23;95521.56;;;-5.71;70.89
56831;BME280;42713;42.676;23.352;2024-01-11T06:03:00;95485.53;;;-5.89;70.51
56831;BME280;42713;42.676;23.352;2024-01-11T06:05:26;95494.31;;;-5.82;70.73
56831;BME280;42713;42.676;23.352;2024-01-11T06:10:59;95488.44;;;-5.83;70.27
56831;BME280;42713;42.676;23.352;2024-01-11T06:13:27;95495.16;;;-5.82;69.85
56831;BME280;42713;42.676;23.352;2024-01-11T06:15:58;95488.28;;;-5.81;69.56
56831;BME280;42713;42.676;23.352;2024-01-11T06:18:24;95492.03;;;-5.85;69.63
56831;BME280;42713;42.676;23.352;2024-01-11T06:20:50;95504.06;;;-5.76;69.26
56831;BME280;42713;42.676;23.352;2024-01-11T06:23:22;95497.47;;;-5.79;69.27
56831;BME280;42713;42.676;23.352;2024-01-11T06:25:59;95493.28;;;-5.80;69.57
56831;BME280;42713;42.676;23.352;2024-01-11T06:28:34;95490.84;;;-5.81;70.13
56831;BME280;42713;42.676;23.352;2024-01-11T06:34:35;95497.53;;;-5.69;70.30
56831;BME280;42713;42.676;23.352;2024-01-11T06:37:20;95492.19;;;-5.66;70.36
56831;BME280;42713;42.676;23.352;2024-01-11T06:43:43;95493.09;;;-5.55;69.89
56831;BME280;42713;42.676;23.352;2024-01-11T06:46:28;95475.25;;;-5.67;70.46
56831;BME280;42713;42.676;23.352;2024-01-11T06:49:10;95472.34;;;-5.62;70.43
56831;BME280;42713;42.676;23.352;2024-01-11T06:51:39;95477.31;;;-5.60;70.73
56831;BME280;42713;42.676;23.352;2024-01-11T06:54:11;95474.53;;;-5.57;71.02
56831;BME280;42713;42.676;23.352;2024-01-11T06:56:36;95474.00;;;-5.51;71.10
56831;BME280;42713;42.676;23.352;2024-01-11T06:59:02;95482.81;;;-5.44;70.84
56831;BME280;42713;42.676;23.352;2024-01-11T07:01:45;95474.34;;;-5.44;70.94
56831;BME280;42713;42.676;23.352;2024-01-11T07:04:15;95492.28;;;-5.35;70.71
56831;BME280;42713;42.676;23.352;2024-01-11T07:06:41;95481.38;;;-5.37;71.01
56831;BME280;42713;42.676;23.352;2024-01-11T07:09:07;95480.78;;;-5.29;71.30
56831;BME280;42713;42.676;23.352;2024-01-11T07:11:32;95489.09;;;-5.27;70.90
56831;BME280;42713;42.676;23.352;2024-01-11T07:13:58;95469.16;;;-5.33;70.68
56831;BME280;42713;42.676;23.352;2024-01-11T07:16:24;95489.66;;;-5.23;70.57
56831;BME280;42713;42.676;23.352;2024-01-11T07:19:05;95477.25;;;-5.28;71.39
56831;BME280;42713;42.676;23.352;2024-01-11T07:21:36;95470.41;;;-5.27;71.76
56831;BME280;42713;42.676;23.352;2024-01-11T07:24:09;95477.31;;;-5.18;71.07
56831;BME280;42713;42.676;23.352;2024-01-11T07:26:35;95479.06;;;-5.19;71.41
56831;BME280;42713;42.676;23.352;2024-01-11T07:29:03;95489.91;;;-5.05;71.41
56831;BME280;42713;42.676;23.352;2024-01-11T07:33:56;95485.25;;;-4.90;71.55
56831;BME280;42713;42.676;23.352;2024-01-11T07:36:31;95468.28;;;-5.01;71.11
56831;BME280;42713;42.676;23.352;2024-01-11T07:38:57;95469.63;;;-4.97;70.31
56831;BME280;42713;42.676;23.352;2024-01-11T07:41:26;95458.91;;;-4.91;71.23
56831;BME280;42713;42.676;23.352;2024-01-11T07:43:52;95480.63;;;-4.75;71.21
56831;BME280;42713;42.676;23.352;2024-01-11T07:46:17;95472.03;;;-4.74;70.73
56831;BME280;42713;42.676;23.352;2024-01-11T07:48:46;95485.66;;;-4.64;70.80
56831;BME280;42713;42.676;23.352;2024-01-11T07:51:12;95466.53;;;-4.70;70.90
56831;BME280;42713;42.676;23.352;2024-01-11T07:53:40;95460.31;;;-4.77;69.96
56831;BME280;42713;42.676;23.352;2024-01-11T07:56:08;95456.16;;;-4.68;70.00
56831;BME280;42713;42.676;23.352;2024-01-11T07:58:36;95464.66;;;-4.67;70.10
56831;BME280;42713;42.676;23.352;2024-01-11T08:01:03;95467.06;;;-4.66;69.86
56831;BME280;42713;42.676;23.352;2024-01-11T08:03:29;95460.09;;;-4.64;69.79
56831;BME280;42713;42.676;23.352;2024-01-11T08:05:55;95462.94;;;-4.57;70.44
56831;BME280;42713;42.676;23.352;2024-01-11T08:08:23;95465.91;;;-4.52;70.16
56831;BME280;42713;42.676;23.352;2024-01-11T08:10:49;95472.53;;;-4.40;69.72
56831;BME280;42713;42.676;23.352;2024-01-11T08:13:15;95451.41;;;-4.42;69.70
56831;BME280;42713;42.676;23.352;2024-01-11T08:15:43;95449.66;;;-4.31;68.76
56831;BME280;42713;42.676;23.352;2024-01-11T08:18:08;95457.25;;;-4.20;69.32
56831;BME280;42713;42.676;23.352;2024-01-11T08:20:37;95447.00;;;-4.20;68.39
56831;BME280;42713;42.676;23.352;2024-01-11T08:23:06;95452.13;;;-4.10;68.10
56831;BME280;42713;42.676;23.352;2024-01-11T09:05:28;95430.44;;;-3.47;68.58
56831;BME280;42713;42.676;23.352;2024-01-11T09:14:54;95418.88;;;-3.14;67.53
56831;BME280;42713;42.676;23.352;2024-01-11T09:18:01;95398.03;;;-3.19;68.18
56831;BME280;42713;42.676;23.352;2024-01-11T09:20:28;95419.66;;;-3.03;67.63
56831;BME280;42713;42.676;23.352;2024-01-11T09:22:53;95408.31;;;-2.91;68.32
56831;BME280;42713;42.676;23.352;2024-01-11T09:25:19;95391.97;;;-2.90;71.58
56831;BME280;42713;42.676;23.352;2024-01-11T09:27:45;95371.84;;;-2.85;69.36
56831;BME280;42713;42.676;23.352;2024-01-11T09:30:20;95371.41;;;-2.80;66.95
56831;BME280;42713;42.676;23.352;2024-01-11T09:33:04;95387.94;;;-2.64;66.96
56831;BME280;42713;42.676;23.352;2024-01-11T09:35:30;95381.13;;;-2.56;67.11
56831;BME280;42713;42.676;23.352;2024-01-11T09:37:55;95405.88;;;-2.37;67.51
56831;BME280;42713;42.676;23.352;2024-01-11T09:40:21;95360.31;;;-2.53;64.73
56831;BME280;42713;42.676;23.352;2024-01-11T09:42:47;95360.31;;;-2.53;63.02
56831;BME280;42713;42.676;23.352;2024-01-11T09:45:15;95356.59;;;-2.40;63.93
56831;BME280;42713;42.676;23.352;2024-01-11T09:47:41;95368.69;;;-2.32;62.67
56831;BME280;42713;42.676;23.352;2024-01-11T09:50:07;95346.25;;;-2.48;62.99
56831;BME280;42713;42.676;23.352;2024-01-11T09:52:34;95336.50;;;-2.45;62.75
56831;BME280;42713;42.676;23.352;2024-01-11T09:55:01;95336.72;;;-2.38;63.46
56831;BME280;42713;42.676;23.352;2024-01-11T09:57:30;95330.50;;;-2.36;63.51
56831;BME280;42713;42.676;23.352;2024-01-11T09:59:57;95337.84;;;-2.23;64.06
56831;BME280;42713;42.676;23.352;2024-01-11T10:02:24;95315.69;;;-2.24;63.85
56831;BME280;42713;42.676;23.352;2024-01-11T10:04:52;95327.41;;;-2.03;64.38
56831;BME280;42713;42.676;23.352;2024-01-11T10:07:19;95307.16;;;-2.06;63.62
56831;BME280;42713;42.676;23.352;2024-01-11T10:09:47;95333.78;;;-1.89;63.21
56831;BME280;42713;42.676;23.352;2024-01-11T10:12:12;95309.22;;;-1.92;64.68
56831;BME280;42713;42.676;23.352;2024-01-11T10:14:38;95322.81;;;-1.73;63.58
56831;BME280;42713;42.676;23.352;2024-01-11T10:17:04;95301.69;;;-1.85;62.19
56831;BME280;42713;42.676;23.352;2024-01-11T10:19:30;95291.59;;;-1.86;62.44
56831;BME280;42713;42.676;23.352;2024-01-11T10:21:57;95297.88;;;-1.81;62.96
56831;BME280;42713;42.676;23.352;2024-01-11T10:24:24;95283.94;;;-1.78;62.82
56831;BME280;42713;42.676;23.352;2024-01-11T10:26:57;95280.13;;;-1.74;63.04
56831;BME280;42713;42.676;23.352;2024-01-11T10:29:31;95277.75;;;-1.67;62.77
56831;BME280;42713;42.676;23.352;2024-01-11T10:31:57;95273.25;;;-1.65;62.27
56831;BME280;42713;42.676;23.352;2024-01-11T10:34:24;95254.75;;;-1.69;62.26
56831;BME280;42713;42.676;23.352;2024-01-11T10:36:51;95257.22;;;-1.59;62.96
56831;BME280;42713;42.676;23.352;2024-01-11T10:39:17;95269.84;;;-1.39;62.35
56831;BME280;42713;42.676;23.352;2024-01-11T10:41:49;95262.97;;;-1.31;62.26
56831;BME280;42713;42.676;23.352;2024-01-11T10:44:20;95254.16;;;-1.28;62.20
56831;BME280;42713;42.676;23.352;2024-01-11T10:46:50;95240.31;;;-1.27;63.53
56831;BME280;42713;42.676;23.352;2024-01-11T10:49:19;95228.00;;;-1.23;63.54
56831;BME280;42713;42.676;23.352;2024-01-11T10:51:54;95233.66;;;-1.12;64.25
56831;BME280;42713;42.676;23.352;2024-01-11T10:54:23;95256.34;;;-0.90;65.70
56831;BME280;42713;42.676;23.352;2024-01-11T10:56:49;95251.06;;;-0.81;66.15
56831;BME280;42713;42.676;23.352;2024-01-11T10:59:18;95231.16;;;-0.79;65.74
56831;BME280;42713;42.676;23.352;2024-01-11T11:01:44;95232.59;;;-0.68;65.53
56831;BME280;42713;42.676;23.352;2024-01-11T11:04:10;95209.94;;;-0.64;64.90
56831;BME280;42713;42.676;23.352;2024-01-11T11:06:38;95212.69;;;-0.57;63.92
56831;BME280;42713;42.676;23.352;2024-01-11T11:09:05;95213.31;;;-0.47;63.61
56831;BME280;42713;42.676;23.352;2024-01-11T11:11:33;95198.53;;;-0.45;64.33
56831;BME280;42713;42.676;23.352;2024-01-11T11:14:01;95192.41;;;-0.44;63.00
56831;BME280;42713;42.676;23.352;2024-01-11T11:16:27;95201.09;;;-0.37;62.96
56831;BME280;42713;42.676;23.352;2024-01-11T11:18:56;95187.88;;;-0.34;63.79
56831;BME280;42713;42.676;23.352;2024-01-11T11:21:22;95177.91;;;-0.20;64.51
56831;BME280;42713;42.676;23.352;2024-01-11T11:23:50;95188.31;;;0.03;64.77
56831;BME280;42713;42.676;23.352;2024-01-11T11:26:16;95160.34;;;0.00;64.00
56831;BME280;42713;42.676;23.352;2024-01-11T11:28:47;95142.94;;;0.02;63.37
56831;BME280;42713;42.676;23.352;2024-01-11T11:31:43;95168.63;;;0.27;62.03
56831;BME280;42713;42.676;23.352;2024-01-11T11:34:13;95143.69;;;0.19;62.20
56831;BME280;42713;42.676;23.352;2024-01-11T11:36:46;95140.91;;;0.29;62.53
56831;BME280;42713;42.676;23.352;2024-01-11T11:39:13;95139.41;;;0.43;61.66
56831;BME280;42713;42.676;23.352;2024-01-11T11:41:39;95118.66;;;0.36;61.05
56831;BME280;42713;42.676;23.352;2024-01-11T11:44:06;95126.53;;;0.43;60.52
56831;BME280;42713;42.676;23.352;2024-01-11T11:46:32;95118.44;;;0.46;61.17
56831;BME280;42713;42.676;23.352;2024-01-11T11:49:00;95139.41;;;0.74;62.02
56831;BME280;42713;42.676;23.352;2024-01-11T11:51:26;95130.31;;;0.87;61.93
56831;BME280;42713;42.676;23.352;2024-01-11T11:53:53;95127.47;;;0.97;61.59
56831;BME280;42713;42.676;23.352;2024-01-11T11:56:23;95125.47;;;1.07;62.19
56831;BME280;42713;42.676;23.352;2024-01-11T11:58:49;95114.75;;;1.18;63.25
56831;BME280;42713;42.676;23.352;2024-01-11T12:01:17;95125.75;;;1.35;61.37
56831;BME280;42713;42.676;23.352;2024-01-11T12:03:44;95095.38;;;1.22;59.40
56831;BME280;42713;42.676;23.352;2024-01-11T12:06:17;95102.59;;;1.27;60.52
56831;BME280;42713;42.676;23.352;2024-01-11T12:08:44;95096.84;;;1.40;63.86
56831;BME280;42713;42.676;23.352;2024-01-11T12:11:24;95075.75;;;1.51;69.87
56831;BME280;42713;42.676;23.352;2024-01-11T12:13:50;95080.91;;;1.81;69.82
56831;BME280;42713;42.676;23.352;2024-01-11T12:16:22;95071.50;;;2.04;68.16
56831;BME280;42713;42.676;23.352;2024-01-11T12:25:54;95052.06;;;1.78;57.47
56831;BME280;42713;42.676;23.352;2024-01-11T12:31:50;95038.72;;;1.74;59.49
56831;BME280;42713;42.676;23.352;2024-01-11T12:34:16;95035.59;;;1.94;67.08
56831;BME280;42713;42.676;23.352;2024-01-11T12:40:43;95057.03;;;2.24;57.61
56831;BME280;42713;42.676;23.352;2024-01-11T12:44:37;95046.16;;;2.14;56.73
56831;BME280;42713;42.676;23.352;2024-01-11T12:51:20;95011.19;;;1.81;58.13
56831;BME280;42713;42.676;23.352;2024-01-11T12:54:03;95002.09;;;1.85;59.71
56831;BME280;42713;42.676;23.352;2024-01-11T12:56:33;95008.31;;;2.06;59.10
56831;BME280;42713;42.676;23.352;2024-01-11T12:59:07;95036.56;;;1.93;58.75
56831;BME280;42713;42.676;23.352;2024-01-11T13:01:39;95009.59;;;1.80;58.90
56831;BME280;42713;42.676;23.352;2024-01-11T13:04:08;95007.56;;;1.76;58.17
56831;BME280;42713;42.676;23.352;2024-01-11T13:06:35;94985.56;;;1.65;59.26
56831;BME280;42713;42.676;23.352;2024-01-11T13:09:02;95006.50;;;1.85;59.99
56831;BME280;42713;42.676;23.352;2024-01-11T13:11:29;94999.50;;;2.00;59.57
56831;BME280;42713;42.676;23.352;2024-01-11T13:13:55;95002.41;;;2.12;59.00
56831;BME280;42713;42.676;23.352;2024-01-11T13:16:24;94991.72;;;2.15;58.79
56831;BME280;42713;42.676;23.352;2024-01-11T13:18:51;95012.97;;;2.32;58.01
56831;BME280;42713;42.676;23.352;2024-01-11T13:21:17;94974.75;;;2.28;58.88
56831;BME280;42713;42.676;23.352;2024-01-11T13:23:42;94974.38;;;2.31;57.98
56831;BME280;42713;42.676;23.352;2024-01-11T13:26:11;94975.97;;;2.32;57.78
56831;BME280;42713;42.676;23.352;2024-01-11T13:28:37;94972.78;;;2.30;57.46
56831;BME280;42713;42.676;23.352;2024-01-11T13:31:05;94963.84;;;2.32;58.79
56831;BME280;42713;42.676;23.352;2024-01-11T13:33:40;94963.16;;;2.24;56.47
56831;BME280;42713;42.676;23.352;2024-01-11T13:36:13;94954.75;;;2.15;57.30
56831;BME280;42713;42.676;23.352;2024-01-11T13:38:39;94947.78;;;2.15;56.77
56831;BME280;42713;42.676;23.352;2024-01-11T13:41:04;94963.47;;;2.14;56.62
56831;BME280;42713;42.676;23.352;2024-01-11T13:43:33;94955.66;;;2.07;56.80
56831;BME280;42713;42.676;23.352;2024-01-11T13:46:00;94952.22;;;2.00;56.30
56831;BME280;42713;42.676;23.352;2024-01-11T13:48:31;94956.88;;;1.90;56.73
56831;BME280;42713;42.676;23.352;2024-01-11T13:50:58;94945.91;;;1.88;57.30
56831;BME280;42713;42.676;23.352;2024-01-11T13:53:24;94944.00;;;1.96;57.69
56831;BME280;42713;42.676;23.352;2024-01-11T13:55:49;94937.25;;;1.95;56.92
56831;BME280;42713;42.676;23.352;2024-01-11T13:58:17;94942.81;;;2.14;57.61
56831;BME280;42713;42.676;23.352;2024-01-11T14:00:43;94957.56;;;2.20;56.76
56831;BME280;42713;42.676;23.352;2024-01-11T14:03:09;94942.19;;;2.12;57.22
56831;BME280;42713;42.676;23.352;2024-01-11T14:05:36;94934.44;;;2.12;55.96
56831;BME280;42713;42.676;23.352;2024-01-11T14:08:03;94930.84;;;1.91;56.62
56831;BME280;42713;42.676;23.352;2024-01-11T14:10:31;94915.63;;;1.81;56.97
56831;BME280;42713;42.676;23.352;2024-01-11T14:13:00;94922.84;;;1.86;56.77
56831;BME280;42713;42.676;23.352;2024-01-11T14:15:27;94912.34;;;1.88;56.61
56831;BME280;42713;42.676;23.352;2024-01-11T14:17:53;94914.44;;;1.99;56.99
56831;BME280;42713;42.676;23.352;2024-01-11T14:20:19;94896.66;;;1.89;57.40
56831;BME280;42713;42.676;23.352;2024-01-11T14:22:46;94901.75;;;2.04;57.49
56831;BME280;42713;42.676;23.352;2024-01-11T14:25:19;94912.22;;;2.17;57.60
56831;BME280;42713;42.676;23.352;2024-01-11T14:27:51;94913.16;;;2.31;56.55
56831;BME280;42713;42.676;23.352;2024-01-11T14:30:18;94895.47;;;2.13;56.43
56831;BME280;42713;42.676;23.352;2024-01-11T14:32:43;94896.41;;;1.84;57.88
56831;BME280;42713;42.676;23.352;2024-01-11T14:35:11;94905.78;;;1.70;57.60
56831;BME280;42713;42.676;23.352;2024-01-11T14:37:38;94897.88;;;1.57;58.21